Time;durP1;ratioP1;P1;durP2;ratioP2;P2;SDS_P1;SDS_P2;PMS_P1;PMS_P2;Temp;Humidity;BMP_temperature;BMP_pressure;BME280_temperature;BME280_humidity;BME280_pressure;Samples;Min_cycle;Max_cycle;Signal;HPM_P1;HPM_P2
2022/01/21 00:01:15;;;;;;;15.47;8.17;;;;;;;4.07;100.00;61241.03;5072534;28;20439;-74
2022/01/21 00:03:43;;;;;;;16.77;7.97;;;;;;;2.69;100.00;61091.78;5072698;28;20446;-75
2022/01/21 00:06:13;;;;;;;16.50;7.53;;;;;;;3.94;100.00;61227.22;5071814;28;20879;-76
2022/01/21 00:08:47;;;;;;;22.07;8.40;;;;;;;3.96;100.00;61229.34;5071903;28;20486;-74
2022/01/21 00:11:19;;;;;;;14.63;7.43;;;;;;;3.95;100.00;61223.22;5072427;28;20439;-76
2022/01/21 00:13:49;;;;;;;14.80;7.00;;;;;;;4.02;100.00;61235.72;5072364;28;20500;-75
2022/01/21 00:16:21;;;;;;;15.67;7.00;;;;;;;4.07;100.00;61240.50;5072622;28;20457;-74
2022/01/21 00:18:54;;;;;;;16.80;8.27;;;;;;;4.16;100.00;61248.09;5072008;28;20474;-75
2022/01/21 00:32:29;;;;;;;18.80;8.23;;;;;;;4.07;100.00;61243.00;5073639;28;20442;-74
2022/01/21 00:34:58;;;;;;;22.93;7.37;;;;;;;3.89;100.00;61221.34;5073049;28;20446;-75
2022/01/21 00:37:26;;;;;;;16.20;7.93;;;;;;;2.98;100.00;61127.63;5073213;28;20451;-75
2022/01/21 00:40:07;;;;;;;19.17;8.20;;;;;;;3.51;100.00;61176.41;5072958;28;20523;-75
2022/01/21 00:42:51;;;;;;;18.23;8.73;;;;;;;4.01;100.00;61237.16;5071508;28;20529;-74
2022/01/21 00:45:20;;;;;;;17.93;7.90;;;;;;;3.20;100.00;61153.53;5072930;28;20442;-76
2022/01/21 00:47:47;;;;;;;18.00;8.03;;;;;;;3.11;100.00;61138.94;5072619;28;20476;-76
2022/01/21 00:50:16;;;;;;;19.23;8.07;;;;;;;4.24;100.00;61256.06;5073028;28;20478;-74
2022/01/21 00:52:45;;;;;;;20.60;9.43;;;;;;;3.87;100.00;61217.22;5072927;28;20516;-76
2022/01/21 00:55:14;;;;;;;19.83;7.93;;;;;;;4.30;100.00;61264.97;5072868;28;20445;-74
2022/01/21 00:57:43;;;;;;;14.23;6.67;;;;;;;4.32;100.00;61261.53;5072704;28;20928;-75
2022/01/21 01:00:13;;;;;;;12.10;5.30;;;;;;;4.29;100.00;61258.88;5072451;28;20958;-76
2022/01/21 01:02:41;;;;;;;17.93;4.83;;;;;;;4.54;100.00;61287.47;5073001;28;20499;-74
2022/01/21 01:05:11;;;;;;;11.27;4.87;;;;;;;3.20;100.00;61148.50;5071970;28;20466;-75
2022/01/21 01:07:41;;;;;;;8.57;3.93;;;;;;;3.20;100.00;61146.00;5071626;28;20480;-74
2022/01/21 01:10:16;;;;;;;11.13;3.27;;;;;;;4.46;100.00;61278.94;5072324;28;20474;-73
2022/01/21 01:12:58;;;;;;;17.80;4.20;;;;;;;4.36;100.00;61270.81;5072651;28;20434;-74
2022/01/21 01:21:16;;;;;;;5.73;2.97;;;;;;;4.18;100.00;61252.75;4980524;28;20492;-74
2022/01/21 01:24:04;;;;;;;9.53;3.50;;;;;;;4.13;100.00;61246.88;5046023;28;20953;-75
2022/01/21 01:29:24;;;;;;;5.73;3.13;;;;;;;2.89;100.00;61106.03;5075031;28;20504;-75
2022/01/21 01:31:53;;;;;;;9.17;3.50;;;;;;;3.99;100.00;61231.97;5074004;28;20469;-74
2022/01/21 01:34:21;;;;;;;6.33;3.33;;;;;;;3.70;100.00;61199.16;5074931;28;20423;-74
2022/01/21 01:36:50;;;;;;;6.90;3.20;;;;;;;4.07;100.00;61241.03;5075297;28;20450;-74
2022/01/21 01:39:31;;;;;;;5.80;3.27;;;;;;;3.93;100.00;61226.13;5075028;28;20482;-74
2022/01/21 01:42:26;;;;;;;9.23;3.43;;;;;;;2.89;100.00;61110.50;5075003;28;20427;-76
2022/01/21 01:50:41;;;;;;;6.10;3.10;;;;;;;3.92;100.00;61225.09;5075228;28;20485;-77
2022/01/21 01:53:12;;;;;;;6.80;3.57;;;;;;;3.68;100.00;61197.03;5075326;28;20463;-74
2022/01/21 01:55:47;;;;;;;7.50;4.00;;;;;;;3.68;100.00;61197.03;5077008;28;20442;-75
2022/01/21 01:58:21;;;;;;;7.63;3.73;;;;;;;2.55;100.00;61070.44;5075485;28;20969;-75
2022/01/21 02:00:56;;;;;;;8.03;3.90;;;;;;;3.65;100.00;61193.28;5073519;28;20497;-73
2022/01/21 02:08:59;;;;;;;6.13;3.93;;;;;;;3.63;100.00;61189.19;5074117;28;20442;-75
2022/01/21 02:14:33;;;;;;;9.10;4.43;;;;;;;3.44;100.00;61174.03;5074084;28;20533;-75
2022/01/21 02:21:28;;;;;;;7.27;4.60;;;;;;;1.64;100.00;60973.81;5073878;28;20458;-76
2022/01/21 02:23:00;;;;;;;7.57;4.27;;;;;;;3.50;100.00;61177.88;5074709;28;20553;-75
2022/01/21 02:28:15;;;;;;;6.13;4.50;;;;;;;2.30;100.00;61053.94;5074687;28;20514;-75
2022/01/21 02:30:53;;;;;;;10.03;5.03;;;;;;;2.80;100.00;61100.97;5074934;28;20490;-75
2022/01/21 02:36:29;;;;;;;20.90;5.83;;;;;;;3.61;100.00;61186.53;5074309;28;20957;-77
2022/01/21 02:38:59;;;;;;;8.63;5.20;;;;;;;3.63;100.00;61194.22;5073547;28;20549;-74
2022/01/21 02:44:15;;;;;;;10.17;5.47;;;;;;;2.93;100.00;61117.28;5074692;28;20503;-76
2022/01/21 02:46:57;;;;;;;6.53;4.67;;;;;;;2.91;100.00;61117.66;5074137;28;20451;-75
2022/01/21 02:49:25;;;;;;;6.57;4.23;;;;;;;1.58;100.00;60983.03;5073427;28;20477;-75
2022/01/21 02:51:55;;;;;;;9.67;5.30;;;;;;;2.63;100.00;61085.41;5073652;28;20459;-76
2022/01/21 02:54:48;;;;;;;7.77;4.43;;;;;;;2.48;100.00;61070.53;5073457;28;20435;-75
2022/01/21 02:57:16;;;;;;;6.00;4.13;;;;;;;1.12;100.00;60931.19;5073065;28;20459;-77
2022/01/21 02:59:45;;;;;;;5.70;4.00;;;;;;;2.33;100.00;61056.59;5073474;28;20454;-75
2022/01/21 03:02:15;;;;;;;5.77;3.80;;;;;;;2.11;100.00;61031.25;5073046;28;20565;-77
2022/01/21 03:04:52;;;;;;;4.60;3.30;;;;;;;1.29;100.00;60947.25;5073420;28;20450;-75
2022/01/21 03:07:22;;;;;;;6.30;3.77;;;;;;;2.00;100.00;61022.06;5073320;28;20442;-75
2022/01/21 03:09:53;;;;;;;4.83;3.27;;;;;;;1.86;100.00;61012.22;5073315;28;20477;-74
2022/01/21 03:12:24;;;;;;;5.30;3.23;;;;;;;0.18;100.00;60830.09;5073665;28;20438;-74
2022/01/21 03:14:52;;;;;;;4.77;3.20;;;;;;;1.03;100.00;60911.63;5072140;28;20504;-75
2022/01/21 03:17:19;;;;;;;5.27;2.60;;;;;;;1.85;100.00;61003.09;5073227;28;20463;-74
2022/01/21 03:19:46;;;;;;;5.20;2.90;;;;;;;0.62;100.00;60874.22;5071523;28;20817;-75
2022/01/21 03:22:13;;;;;;;3.37;2.20;;;;;;;1.98;100.00;61014.91;5072723;28;20458;-77
2022/01/21 03:24:42;;;;;;;4.37;2.43;;;;;;;1.89;100.00;61009.88;5073511;28;20438;-75
2022/01/21 03:29:53;;;;;;;3.50;2.30;;;;;;;1.90;100.00;61011.44;5073895;28;20569;-77
2022/01/21 03:32:28;;;;;;;2.97;2.20;;;;;;;1.82;100.00;60992.91;5072573;28;20446;-75
2022/01/21 03:35:02;;;;;;;2.33;2.00;;;;;;;0.73;100.00;60885.88;5072384;28;20435;-74
2022/01/21 03:37:29;;;;;;;4.17;2.27;;;;;;;1.86;100.00;61007.22;5072815;28;20438;-74
2022/01/21 03:40:00;;;;;;;3.97;1.90;;;;;;;1.89;100.00;61010.41;5072200;28;20544;-76
2022/01/21 03:42:35;;;;;;;1.87;1.63;;;;;;;1.05;100.00;60911.22;5072949;28;20423;-76
2022/01/21 03:45:03;;;;;;;3.00;1.97;;;;;;;-0.06;100.00;60795.16;5072839;28;20438;-75
2022/01/21 03:47:34;;;;;;;1.93;1.73;;;;;;;0.74;100.00;60883.91;5072843;28;20430;-76
2022/01/21 03:50:19;;;;;;;2.07;1.50;;;;;;;1.24;100.00;60941.41;5072644;28;20474;-74
2022/01/21 03:52:52;;;;;;;2.60;1.60;;;;;;;1.57;100.00;60971.94;5072623;28;20451;-74
2022/01/21 03:55:36;;;;;;;1.80;1.70;;;;;;;-0.09;100.00;60803.97;5071745;28;20470;-76
2022/01/21 03:58:08;;;;;;;2.77;1.57;;;;;;;1.50;100.00;60971.50;5072497;28;20450;-74
2022/01/21 04:00:38;;;;;;;3.73;2.00;;;;;;;1.05;100.00;60918.75;5072402;28;20438;-76
2022/01/21 04:03:12;;;;;;;2.10;1.70;;;;;;;1.22;100.00;60939.81;5071511;28;20438;-74
2022/01/21 04:08:22;;;;;;;2.20;1.70;;;;;;;1.56;100.00;60973.38;5073238;28;20529;-75
2022/01/21 04:10:50;;;;;;;3.27;2.20;;;;;;;1.54;100.00;60975.75;5072177;28;21031;-75
2022/01/21 04:13:22;;;;;;;3.63;2.23;;;;;;;1.42;100.00;60955.50;5072400;28;20486;-75
2022/01/21 04:15:52;;;;;;;4.10;2.30;;;;;;;1.46;100.00;60964.75;5072594;28;20430;-76
2022/01/21 04:18:27;;;;;;;2.90;2.27;;;;;;;1.41;100.00;60959.47;5071952;28;20443;-76
2022/01/21 04:20:55;;;;;;;4.00;2.30;;;;;;;1.44;100.00;60962.63;5071062;28;20446;-77
2022/01/21 04:23:25;;;;;;;3.13;2.20;;;;;;;0.36;100.00;60846.66;5072051;28;20878;-76
2022/01/21 04:25:53;;;;;;;4.83;2.47;;;;;;;1.49;100.00;60965.94;5071923;28;20489;-77
2022/01/21 04:28:24;;;;;;;4.27;2.50;;;;;;;0.46;100.00;60854.75;5071642;28;20848;-76
2022/01/21 04:30:56;;;;;;;4.97;2.90;;;;;;;1.63;100.00;60982.81;5072386;28;20484;-75
2022/01/21 04:33:25;;;;;;;6.83;3.53;;;;;;;1.53;100.00;60969.69;5071096;28;20442;-74
2022/01/21 04:35:56;;;;;;;7.13;3.47;;;;;;;1.47;100.00;60960.81;5071966;28;20442;-77
2022/01/21 04:38:26;;;;;;;5.07;3.20;;;;;;;1.07;100.00;60920.88;5070803;28;20835;-76
2022/01/21 04:41:04;;;;;;;7.20;4.17;;;;;;;1.50;100.00;60967.03;5071565;28;20453;-77
2022/01/21 04:49:05;;;;;;;6.07;3.50;;;;;;;0.13;100.00;60819.25;5077116;28;20993;-75
2022/01/21 04:51:39;;;;;;;6.13;3.20;;;;;;;1.31;100.00;60949.34;5071994;28;20524;-76
2022/01/21 04:54:17;;;;;;;6.03;3.00;;;;;;;0.16;100.00;60817.97;5071687;28;20466;-79
2022/01/21 04:56:49;;;;;;;7.90;3.07;;;;;;;-0.01;100.00;60809.94;5072243;28;20458;-76
2022/01/21 04:59:26;;;;;;;4.37;2.80;;;;;;;0.16;100.00;60822.97;5072039;28;20930;-77
2022/01/21 05:01:58;;;;;;;4.10;2.13;;;;;;;-0.51;100.00;60752.53;5073650;28;20434;-75
2022/01/21 05:04:32;;;;;;;6.53;3.43;;;;;;;1.39;100.00;60954.81;5076931;28;20439;-75
2022/01/21 05:07:02;;;;;;;5.00;2.80;;;;;;;0.05;100.00;60818.28;5076470;28;20437;-75
2022/01/21 05:09:33;;;;;;;4.93;2.40;;;;;;;-0.11;100.00;60804.38;5075701;28;20442;-78
2022/01/21 05:12:02;;;;;;;2.67;2.10;;;;;;;1.50;100.00;60964.50;5075549;28;20493;-76
2022/01/21 05:14:45;;;;;;;4.83;2.20;;;;;;;-0.25;100.00;60782.03;5075336;28;20495;-75
2022/01/21 05:17:19;;;;;;;3.63;2.30;;;;;;;1.36;100.00;60954.13;5075211;28;20527;-76
2022/01/21 05:19:52;;;;;;;6.07;3.20;;;;;;;0.48;100.00;60856.88;5075441;28;20967;-77
2022/01/21 05:22:25;;;;;;;5.70;3.00;;;;;;;0.46;100.00;60859.75;5075574;28;20888;-75
2022/01/21 05:24:59;;;;;;;5.37;2.70;;;;;;;1.37;100.00;60955.22;5075270;28;20460;-77
2022/01/21 05:27:30;;;;;;;6.27;2.60;;;;;;;0.05;100.00;60816.31;5075626;28;20450;-76
2022/01/21 05:30:17;;;;;;;6.57;3.53;;;;;;;1.28;100.00;60943.16;5075728;28;20431;-74
2022/01/21 05:32:48;;;;;;;3.73;2.80;;;;;;;1.24;100.00;60939.44;5074976;28;20434;-76
2022/01/21 05:35:16;;;;;;;3.63;2.30;;;;;;;0.56;100.00;60867.84;5075516;28;20438;-76
2022/01/21 05:37:43;;;;;;;3.60;2.10;;;;;;;0.52;100.00;60863.63;5074793;28;20454;-76
2022/01/21 05:40:15;;;;;;;3.63;1.83;;;;;;;-0.76;100.00;60730.53;5075390;28;20462;-77
2022/01/21 05:42:43;;;;;;;2.60;1.90;;;;;;;0.81;100.00;60896.31;5074529;28;20896;-77
2022/01/21 05:47:57;;;;;;;4.20;2.37;;;;;;;0.56;100.00;60865.34;5075092;28;20473;-76
2022/01/21 05:50:28;;;;;;;6.30;3.10;;;;;;;-0.80;100.00;60726.81;5074917;28;20482;-74
2022/01/21 05:52:56;;;;;;;5.87;3.53;;;;;;;0.53;100.00;60862.16;5075046;28;20455;-77
2022/01/21 05:55:24;;;;;;;8.07;4.60;;;;;;;0.47;100.00;60858.31;5074161;28;20523;-76
2022/01/21 05:57:52;;;;;;;7.90;3.77;;;;;;;-0.66;100.00;60736.13;5073940;28;20462;-77
2022/01/21 06:00:24;;;;;;;6.97;3.57;;;;;;;0.54;100.00;60868.25;5074402;28;20447;-74
2022/01/21 06:02:54;;;;;;;8.00;3.60;;;;;;;0.66;100.00;60880.44;5073398;28;20434;-76
2022/01/21 06:05:33;;;;;;;7.47;4.17;;;;;;;0.72;100.00;60884.81;5074113;28;20442;-77
2022/01/21 06:08:09;;;;;;;9.23;4.20;;;;;;;0.72;100.00;60884.81;5074165;28;20961;-75
2022/01/21 06:10:37;;;;;;;8.80;2.70;;;;;;;0.83;100.00;60898.97;5074241;28;20482;-76
2022/01/21 06:13:04;;;;;;;4.87;2.90;;;;;;;0.81;100.00;60896.84;5074108;28;20492;-75
2022/01/21 06:15:35;;;;;;;3.07;2.27;;;;;;;0.70;100.00;60882.69;5079714;28;20450;-76
2022/01/21 06:18:05;;;;;;;3.83;2.67;;;;;;;0.91;100.00;60904.41;5074326;28;20477;-76
2022/01/21 06:20:50;;;;;;;5.00;3.00;;;;;;;0.66;100.00;60880.97;5074385;28;20431;-76
2022/01/21 06:23:17;;;;;;;7.00;2.87;;;;;;;0.58;100.00;60872.47;5074193;28;20888;-75
2022/01/21 06:25:46;;;;;;;3.90;2.67;;;;;;;0.64;100.00;60876.34;5074068;28;20439;-77
2022/01/21 06:28:15;;;;;;;3.97;2.10;;;;;;;-0.73;100.00;60723.69;5074244;28;20467;-75
2022/01/21 06:30:51;;;;;;;7.93;3.37;;;;;;;-0.03;100.00;60802.81;5074074;28;20990;-76
2022/01/21 06:33:22;;;;;;;5.60;3.67;;;;;;;-0.02;100.00;60803.91;5074345;28;20499;-75
2022/01/21 06:35:51;;;;;;;6.17;3.70;;;;;;;-0.18;100.00;60789.44;5074265;28;20458;-76
2022/01/21 06:38:24;;;;;;;8.17;3.63;;;;;;;-0.01;100.00;60802.44;5073418;28;20878;-76
2022/01/21 06:40:51;;;;;;;10.73;4.40;;;;;;;-1.57;100.00;60645.88;5073354;28;20788;-76
2022/01/21 06:43:47;;;;;;;8.93;3.57;;;;;;;-0.20;100.00;60789.84;5075089;28;20500;-75
2022/01/21 06:46:15;;;;;;;13.63;4.60;;;;;;;-0.13;100.00;60792.22;5074168;28;20600;-76
2022/01/21 06:48:47;;;;;;;17.03;7.30;;;;;;;-0.98;100.00;60712.75;5074056;28;20431;-74
2022/01/21 06:51:17;;;;;;;11.80;5.77;;;;;;;-0.23;100.00;60787.19;5074213;28;20555;-75
2022/01/21 06:53:45;;;;;;;9.70;5.40;;;;;;;0.02;100.00;60808.13;5073687;28;20459;-75
2022/01/21 06:56:14;;;;;;;5.73;3.80;;;;;;;-0.37;100.00;60769.31;5073656;28;20431;-76
2022/01/21 06:58:57;;;;;;;5.87;3.43;;;;;;;0.15;100.00;60824.41;5074588;28;20571;-77
2022/01/21 07:01:38;;;;;;;7.83;3.43;;;;;;;0.16;100.00;60820.47;5073750;28;20953;-76
2022/01/21 07:04:09;;;;;;;7.90;3.30;;;;;;;0.48;100.00;60856.88;5074202;28;20451;-75
2022/01/21 07:06:45;;;;;;;9.73;3.77;;;;;;;0.60;100.00;60872.09;5075657;28;20430;-77
2022/01/21 07:09:24;;;;;;;9.00;4.20;;;;;;;0.68;100.00;60883.09;5072361;28;20477;-75
2022/01/21 07:11:54;;;;;;;9.77;4.90;;;;;;;-0.42;100.00;60766.53;5071856;28;20517;-77
2022/01/21 07:14:22;;;;;;;17.50;5.30;;;;;;;-0.13;100.00;60792.75;5073273;28;20446;-78
2022/01/21 07:17:00;;;;;;;12.83;4.83;;;;;;;0.44;100.00;60857.66;5072669;28;20455;-76
2022/01/21 07:19:28;;;;;;;15.30;6.33;;;;;;;1.09;100.00;60920.50;5073374;28;20800;-75
2022/01/21 07:22:12;;;;;;;20.53;6.73;;;;;;;0.93;100.00;60908.53;5073028;28;20477;-77
2022/01/21 07:24:40;;;;;;;14.63;5.30;;;;;;;0.34;100.00;60839.53;5073635;28;20492;-77
2022/01/21 07:27:11;;;;;;;12.90;4.50;;;;;;;0.41;100.00;60849.44;5074597;28;20443;-77
2022/01/21 07:29:43;;;;;;;8.63;4.10;;;;;;;-0.38;100.00;60763.25;5074580;28;20450;-73
2022/01/21 07:32:14;;;;;;;13.20;5.77;;;;;;;0.75;100.00;60888.00;5074820;28;20919;-75
2022/01/21 07:34:41;;;;;;;7.60;5.00;;;;;;;0.74;100.00;60884.44;5075515;28;20434;-76
2022/01/21 07:37:13;;;;;;;11.10;3.67;;;;;;;-1.12;100.00;60695.97;5074986;28;20443;-76
2022/01/21 07:39:58;;;;;;;9.47;4.90;;;;;;;0.72;100.00;60882.31;5095411;28;20468;-77
2022/01/21 07:42:29;;;;;;;12.60;4.53;;;;;;;0.81;100.00;60896.84;5096750;28;20955;-74
2022/01/21 07:45:00;;;;;;;9.93;4.73;;;;;;;0.79;100.00;60894.75;5097766;28;20437;-76
2022/01/21 07:47:41;;;;;;;10.67;3.50;;;;;;;0.65;100.00;60877.38;5115728;28;20481;-77
2022/01/21 07:50:14;;;;;;;4.23;2.67;;;;;;;-0.86;100.00;60721.00;5115463;28;20523;-78
2022/01/21 07:52:47;;;;;;;14.47;4.90;;;;;;;-0.42;100.00;60766.53;5114787;28;20484;-77
2022/01/21 07:55:16;;;;;;;14.30;5.73;;;;;;;0.80;100.00;60885.78;5096994;28;20441;-76
2022/01/21 08:00:29;;;;;;;8.73;3.80;;;;;;;-0.34;100.00;60767.50;5114475;28;20441;-77
2022/01/21 08:03:12;;;;;;;6.80;3.60;;;;;;;0.79;100.00;60894.75;5115216;28;20876;-77
2022/01/21 08:11:22;;;;;;;7.90;3.87;;;;;;;1.04;100.00;60917.69;5115347;28;20479;-77
2022/01/21 08:13:58;;;;;;;8.40;3.70;;;;;;;0.99;100.00;60914.91;5116107;28;20437;-78
2022/01/21 08:16:45;;;;;;;5.67;3.83;;;;;;;1.06;100.00;60917.31;5115714;28;20472;-76
2022/01/21 08:19:33;;;;;;;5.67;3.57;;;;;;;1.05;100.00;60921.25;5115743;28;20441;-77
2022/01/21 08:25:20;;;;;;;7.60;4.17;;;;;;;1.03;100.00;60919.16;5118448;28;20950;-76
2022/01/21 08:27:53;;;;;;;15.10;8.40;;;;;;;1.00;100.00;60918.47;5113757;28;20459;-76
2022/01/21 08:30:23;;;;;;;11.57;6.17;;;;;;;-0.01;100.00;60805.47;5114072;28;20487;-76
2022/01/21 08:32:53;;;;;;;14.90;5.83;;;;;;;0.98;100.00;60903.81;5115251;28;20480;-75
2022/01/21 08:35:28;;;;;;;11.90;5.77;;;;;;;0.43;100.00;60856.56;5117100;28;20444;-77
2022/01/21 08:38:04;;;;;;;16.07;7.50;;;;;;;1.13;100.00;60927.25;5120467;28;20464;-77
2022/01/21 08:40:41;;;;;;;23.53;9.27;;;;;;;1.12;100.00;60929.22;5119979;28;20482;-76
2022/01/21 08:43:12;;;;;;;11.40;5.70;;;;;;;1.07;100.00;60923.91;5121200;28;20432;-77
2022/01/21 08:45:54;;;;;;;6.73;3.43;;;;;;;0.97;100.00;60907.75;5119094;28;20444;-77
2022/01/21 08:48:24;;;;;;;4.90;2.70;;;;;;;0.87;100.00;60902.19;5121481;28;20451;-76
2022/01/21 08:50:55;;;;;;;6.80;2.90;;;;;;;0.98;100.00;60913.81;5119347;28;20444;-77
2022/01/21 08:53:38;;;;;;;5.70;2.83;;;;;;;0.59;100.00;60868.53;5101543;28;20465;-78
2022/01/21 08:58:59;;;;;;;6.93;3.20;;;;;;;1.03;100.00;60919.16;5117406;28;20439;-78
2022/01/21 09:01:32;;;;;;;4.47;2.87;;;;;;;0.81;100.00;60891.84;5118386;28;20445;-77
2022/01/21 09:04:04;;;;;;;3.53;2.50;;;;;;;1.29;100.00;60941.72;5119430;28;20440;-75
2022/01/21 09:09:21;;;;;;;6.80;3.00;;;;;;;0.35;100.00;60845.06;5117703;28;20439;-77
2022/01/21 09:12:19;;;;;;;6.63;3.37;;;;;;;1.28;100.00;60943.16;5118834;28;20555;-77
2022/01/21 09:14:51;;;;;;;7.27;2.90;;;;;;;0.09;100.00;60822.50;5118738;28;20444;-76
2022/01/21 09:17:23;;;;;;;5.87;2.50;;;;;;;-0.27;100.00;60777.41;5100650;28;20444;-77
2022/01/21 09:19:57;;;;;;;5.37;2.30;;;;;;;1.37;100.00;60953.22;5119116;28;20490;-75
2022/01/21 09:22:35;;;;;;;5.90;2.00;;;;;;;1.24;100.00;60941.94;5120354;28;20875;-76
2022/01/21 09:25:04;;;;;;;9.53;2.40;;;;;;;1.47;100.00;60960.81;5119257;28;20429;-75
2022/01/21 09:27:36;;;;;;;5.20;2.17;;;;;;;1.45;100.00;60963.69;5118836;28;20443;-78
2022/01/21 09:30:14;;;;;;;3.43;2.10;;;;;;;1.69;100.00;60989.16;5119052;28;20437;-79
2022/01/21 09:33:10;;;;;;;6.10;1.80;;;;;;;1.58;100.00;60977.47;5120375;28;20480;-78
2022/01/21 09:35:47;;;;;;;3.60;1.70;;;;;;;0.14;100.00;60825.31;5118776;28;20466;-76
2022/01/21 09:38:16;;;;;;;3.33;1.57;;;;;;;0.58;100.00;60869.97;5118366;28;20455;-76
2022/01/21 09:40:47;;;;;;;4.93;2.20;;;;;;;0.92;100.00;60905.50;5118340;28;20494;-76
2022/01/21 09:46:20;;;;;;;4.83;2.00;;;;;;;1.94;100.00;61010.69;5116398;28;20444;-78
2022/01/21 09:49:08;;;;;;;4.50;2.23;;;;;;;1.48;100.00;60966.88;5115555;28;20476;-78
2022/01/21 09:54:34;;;;;;;5.10;2.33;;;;;;;2.05;100.00;61024.34;5114844;28;20428;-77
2022/01/21 09:57:08;;;;;;;6.20;2.47;;;;;;;1.13;100.00;60920.22;5115404;28;20818;-78
2022/01/21 09:59:42;;;;;;;5.93;2.47;;;;;;;1.19;100.00;60931.09;5115056;28;20449;-77
2022/01/21 10:02:16;;;;;;;5.17;2.37;;;;;;;2.51;100.00;61076.25;5115055;28;20457;-76
2022/01/21 10:04:47;;;;;;;5.70;2.80;;;;;;;1.91;100.00;61010.00;5115602;28;20784;-78
2022/01/21 10:07:21;;;;;;;5.60;3.40;;;;;;;3.16;100.00;61144.25;5115310;28;20452;-77
2022/01/21 10:12:34;;;;;;;6.33;3.13;;;;;;;3.34;100.00;61160.88;5114022;28;20491;-78
2022/01/21 10:15:27;;;;;;;6.97;2.93;;;;;;;3.07;100.00;61130.19;5114901;28;20448;-76
2022/01/21 10:18:12;;;;;;;9.23;3.93;;;;;;;3.08;100.00;61135.75;5096955;28;20443;-77
2022/01/21 10:21:00;;;;;;;9.97;3.63;;;;;;;3.50;100.00;61182.94;5114455;28;20798;-79
2022/01/21 10:23:33;;;;;;;6.33;4.33;;;;;;;2.43;100.00;61067.75;5114680;28;20481;-77
2022/01/21 10:26:10;;;;;;;6.23;3.40;;;;;;;1.72;100.00;60994.84;5115477;28;20432;-79
2022/01/21 10:28:46;;;;;;;6.67;3.70;;;;;;;2.34;100.00;61055.13;5114321;28;20443;-76
2022/01/21 10:31:17;;;;;;;9.17;3.90;;;;;;;2.20;100.00;61035.75;5114316;28;20977;-77
2022/01/21 10:33:54;;;;;;;8.83;3.00;;;;;;;2.92;100.00;61119.25;5116986;28;21006;-73
2022/01/21 10:36:34;;;;;;;8.87;3.30;;;;;;;2.93;100.00;61119.78;5115772;28;20452;-76
2022/01/21 10:39:13;;;;;;;10.27;2.90;;;;;;;2.79;100.00;61102.94;5114417;28;20530;-79
2022/01/21 10:44:35;;;;;;;3.10;2.17;;;;;;;2.41;100.00;61065.63;5114335;28;20525;-76
2022/01/21 10:47:06;;;;;;;7.27;3.23;;;;;;;2.65;100.00;61090.03;5114517;28;20467;-76
2022/01/21 10:49:39;;;;;;;6.63;3.03;;;;;;;1.97;100.00;61013.88;5114166;28;20512;-76
2022/01/21 10:52:09;;;;;;;8.73;3.90;;;;;;;2.29;100.00;61050.38;5097056;28;20480;-74
2022/01/21 10:54:44;;;;;;;7.07;3.10;;;;;;;2.61;100.00;61085.78;5096428;28;20955;-78
2022/01/21 10:57:15;;;;;;;8.67;3.50;;;;;;;2.75;100.00;61098.69;5113997;28;20910;-77
2022/01/21 10:59:48;;;;;;;6.70;3.23;;;;;;;2.85;100.00;61111.28;5112958;28;21005;-76
2022/01/21 11:02:27;;;;;;;4.23;2.43;;;;;;;2.56;100.00;61081.53;5113609;28;20478;-75
2022/01/21 11:04:59;;;;;;;4.77;2.50;;;;;;;2.40;100.00;61064.00;5113726;28;20531;-76
2022/01/21 11:07:54;;;;;;;3.93;2.00;;;;;;;2.72;100.00;61097.50;5114000;28;20445;-75
2022/01/21 11:16:26;;;;;;;3.97;2.00;;;;;;;3.05;100.00;61130.03;5113986;28;20854;-76
2022/01/21 11:19:07;;;;;;;3.40;1.63;;;;;;;3.20;100.00;61146.00;5114666;28;20417;-77
2022/01/21 11:21:52;;;;;;;2.90;2.00;;;;;;;3.35;100.00;61164.97;5114478;28;20504;-77
2022/01/21 11:24:23;;;;;;;3.73;2.60;;;;;;;2.12;100.00;61034.81;5112602;28;20449;-76
2022/01/21 11:27:14;;;;;;;3.87;2.03;;;;;;;2.10;100.00;61029.63;5113603;28;20444;-77
2022/01/21 11:29:45;;;;;;;2.93;2.20;;;;;;;2.49;100.00;61073.59;5095681;28;20437;-75
2022/01/21 11:32:18;;;;;;;3.73;2.50;;;;;;;2.64;100.00;61089.50;5095280;28;20477;-76
2022/01/21 11:34:59;;;;;;;3.70;2.70;;;;;;;3.04;100.00;61131.50;5114030;28;20433;-76
2022/01/21 11:37:59;;;;;;;6.53;3.23;;;;;;;2.99;100.00;61126.16;5115401;28;20432;-76
2022/01/21 11:40:35;;;;;;;5.10;3.17;;;;;;;2.92;100.00;61121.25;5113348;28;20481;-77
2022/01/21 11:43:04;;;;;;;5.10;3.00;;;;;;;1.59;100.00;60973.53;5113189;28;20497;-76
2022/01/21 11:51:18;;;;;;;9.03;3.63;;;;;;;2.36;100.00;61057.78;5112475;28;20440;-78
2022/01/21 11:53:48;;;;;;;5.43;3.37;;;;;;;2.18;100.00;61038.66;5112888;28;20867;-78
2022/01/21 11:56:36;;;;;;;6.73;3.60;;;;;;;2.05;100.00;61024.88;5113305;28;20520;-76
2022/01/21 11:59:24;;;;;;;5.13;3.23;;;;;;;1.59;100.00;60976.03;5110802;28;20469;-75
2022/01/21 12:01:57;;;;;;;7.77;3.43;;;;;;;1.76;100.00;60994.06;5112846;28;20449;-77
2022/01/21 12:05:03;;;;;;;6.17;3.77;;;;;;;1.76;100.00;60996.59;5112321;28;20441;-77
2022/01/21 12:07:50;;;;;;;5.57;3.27;;;;;;;1.49;100.00;60967.94;5111892;28;20866;-77
2022/01/21 12:10:31;;;;;;;8.33;3.90;;;;;;;1.49;100.00;60965.44;5093029;28;20856;-76
2022/01/21 12:13:25;;;;;;;10.17;4.33;;;;;;;1.56;100.00;60975.38;5113949;28;20533;-78
2022/01/21 12:21:45;;;;;;;6.60;3.87;;;;;;;1.28;100.00;60945.66;5111233;28;20452;-78
2022/01/21 12:29:50;;;;;;;6.27;3.47;;;;;;;1.34;100.00;60947.00;5111855;28;20586;-77
2022/01/21 12:32:34;;;;;;;9.57;4.20;;;;;;;1.22;100.00;60944.31;5094499;28;20472;-78
2022/01/21 12:35:23;;;;;;;12.57;4.23;;;;;;;1.32;100.00;60947.38;5112586;28;20456;-76
2022/01/21 12:41:25;;;;;;;7.60;3.60;;;;;;;1.49;100.00;60967.94;5098614;28;20472;-76
2022/01/21 12:43:56;;;;;;;7.73;3.73;;;;;;;0.35;100.00;60847.56;5094852;28;20491;-77
2022/01/21 12:46:35;;;;;;;5.97;3.57;;;;;;;1.27;100.00;60939.59;5092013;28;20441;-77
2022/01/21 12:49:52;;;;;;;7.63;4.03;;;;;;;1.32;100.00;60944.88;5092313;28;20438;-75
2022/01/21 12:52:33;;;;;;;7.63;3.87;;;;;;;1.33;100.00;60950.97;5060955;28;20469;-76
2022/01/21 12:57:54;;;;;;;3.17;2.20;;;;;;;0.87;100.00;60902.19;5092384;28;20524;-79
2022/01/21 13:00:22;;;;;;;7.97;4.30;;;;;;;-0.33;100.00;60771.59;5092375;28;20506;-77
2022/01/21 13:03:13;;;;;;;6.90;4.10;;;;;;;0.69;100.00;60889.16;5092686;28;20434;-76
2022/01/21 13:08:44;;;;;;;9.30;4.40;;;;;;;1.30;100.00;60950.28;5091619;28;20445;-76
2022/01/21 13:11:21;;;;;;;7.87;3.67;;;;;;;1.07;100.00;60923.91;5091506;28;20828;-76
2022/01/21 13:13:59;;;;;;;9.40;4.30;;;;;;;0.83;100.00;60898.97;5091714;28;20481;-75
2022/01/21 13:16:36;;;;;;;6.47;3.17;;;;;;;0.88;100.00;60900.72;5074034;28;20449;-76
2022/01/21 13:19:10;;;;;;;5.63;3.10;;;;;;;0.81;100.00;60896.84;5092088;28;20421;-78
2022/01/21 13:21:57;;;;;;;6.97;3.37;;;;;;;0.78;100.00;60893.69;5092854;28;20442;-74
2022/01/21 13:24:31;;;;;;;5.67;3.37;;;;;;;-0.03;100.00;60807.81;5096158;28;20491;-78
2022/01/21 13:27:00;;;;;;;5.73;3.43;;;;;;;0.52;100.00;60871.13;5095719;28;20532;-77
2022/01/21 13:29:34;;;;;;;7.93;3.20;;;;;;;0.75;100.00;60890.50;5095411;28;20442;-77
2022/01/21 13:35:31;;;;;;;7.53;3.53;;;;;;;0.06;100.00;60816.84;5095735;28;20516;-76
2022/01/21 13:38:17;;;;;;;11.80;4.13;;;;;;;0.72;100.00;60892.34;5095412;28;20437;-77
2022/01/21 13:40:49;;;;;;;7.40;3.60;;;;;;;0.94;100.00;60909.59;5108334;28;20492;-77
2022/01/21 13:43:22;;;;;;;5.70;3.27;;;;;;;1.22;100.00;60939.28;5116930;28;21016;-76
2022/01/21 13:48:41;;;;;;;9.83;3.87;;;;;;;0.59;100.00;60878.00;5117167;28;20444;-75
2022/01/21 13:51:14;;;;;;;8.17;3.23;;;;;;;0.81;100.00;60894.34;5116017;28;20821;-76
2022/01/21 13:53:49;;;;;;;6.87;3.83;;;;;;;-0.23;100.00;60786.66;5116284;28;20559;-75
2022/01/21 13:56:25;;;;;;;11.63;4.50;;;;;;;1.14;100.00;60930.81;5116114;28;20476;-76
2022/01/21 13:58:57;;;;;;;7.07;3.70;;;;;;;1.03;100.00;60919.16;5115338;28;20942;-76
2022/01/21 14:01:28;;;;;;;7.00;3.33;;;;;;;1.15;100.00;60926.84;5115464;28;20445;-75
2022/01/21 14:04:08;;;;;;;7.13;3.37;;;;;;;0.72;100.00;60887.31;5115353;28;20869;-77
2022/01/21 14:06:48;;;;;;;4.93;2.97;;;;;;;-0.25;100.00;60789.53;5114799;28;20444;-76
2022/01/21 14:09:23;;;;;;;6.50;4.17;;;;;;;0.42;100.00;60849.97;5115190;28;20445;-75
2022/01/21 14:11:58;;;;;;;11.20;5.27;;;;;;;0.85;100.00;60901.09;5096642;28;20913;-75